Altamont, South Dakota
Current Conditions -  °F | °C
As of 4:54 PM on Thursday 27 Nov 2014 (Local Time) from KCNB Reporting Station
Overcast Overcast  
Wind Chill: -9°   Ceiling: 3500
Heat Index:   Visibility: 10mi
Dew Point:   Wind: 13mph
Humidity: 78%   Direction: 120°ESE
Pressure: 30.28"   Gusts: NA
Location:  44.7895°N, 96.7201°W
Report Text: KCNB 272254Z AUTO 12011KT 10SM BKN035 OVC065 M14/M17 A3028 RMK AO2 T11391170
Loading
Personal Weather Stations






























Interactive Weather Map New forecast layout! Learn more

10-Day Weather Forecast

Advertisements
Track Severe Weather on mobile